createdAt,value
2018-07-11T00:01:11.582Z,5.97
2018-07-11T00:03:43.619Z,4.50
2018-07-11T00:06:12.604Z,5.90
2018-07-11T00:08:41.262Z,7.03
2018-07-11T00:11:10.610Z,9.47
2018-07-11T00:13:39.589Z,7.30
2018-07-11T00:16:08.104Z,10.07
2018-07-11T00:18:36.624Z,4.03
2018-07-11T00:21:04.829Z,5.30
2018-07-11T00:23:33.701Z,3.70
2018-07-11T00:26:02.531Z,5.47
2018-07-11T00:28:31.119Z,5.63
2018-07-11T00:31:00.238Z,7.20
2018-07-11T00:33:28.872Z,3.10
2018-07-11T00:35:57.459Z,4.37
2018-07-11T00:38:25.994Z,4.53
2018-07-11T00:40:54.562Z,8.63
2018-07-11T00:43:23.095Z,4.10
2018-07-11T00:45:51.961Z,3.33
2018-07-11T00:48:20.498Z,6.00
2018-07-11T00:50:49.275Z,5.57
2018-07-11T00:53:17.481Z,5.60
2018-07-11T00:55:46.492Z,7.53
2018-07-11T00:58:23.425Z,6.30
2018-07-11T01:01:03.897Z,7.60
2018-07-11T01:03:32.057Z,6.77
2018-07-11T01:06:00.589Z,6.07
2018-07-11T01:08:29.275Z,4.57
2018-07-11T01:11:00.462Z,4.53
2018-07-11T01:13:29.240Z,4.87
2018-07-11T01:15:57.854Z,4.97
2018-07-11T01:18:26.557Z,5.23
2018-07-11T01:20:55.149Z,4.23
2018-07-11T01:23:23.664Z,3.83
2018-07-11T01:25:52.209Z,12.10
2018-07-11T01:28:20.746Z,10.13
2018-07-11T01:30:49.325Z,7.27
2018-07-11T01:33:18.078Z,3.90
2018-07-11T01:35:46.638Z,6.63
2018-07-11T01:38:15.301Z,5.37
2018-07-11T01:40:43.825Z,7.07
2018-07-11T01:43:12.335Z,8.70
2018-07-11T01:45:40.830Z,7.23
2018-07-11T01:48:09.117Z,6.13
2018-07-11T01:50:37.263Z,3.77
2018-07-11T01:53:05.802Z,6.93
2018-07-11T01:55:34.327Z,8.60
2018-07-11T01:58:02.890Z,5.70
2018-07-11T02:00:31.499Z,6.70
2018-07-11T02:03:00.067Z,6.93
2018-07-11T02:05:28.616Z,8.33
2018-07-11T02:07:56.932Z,6.93
2018-07-11T02:10:25.950Z,8.80
2018-07-11T02:12:54.460Z,11.83
2018-07-11T02:15:23.002Z,9.60
2018-07-11T02:17:51.584Z,5.67
2018-07-11T02:20:20.142Z,8.63
2018-07-11T02:22:52.238Z,8.17
2018-07-11T02:25:21.158Z,8.00
2018-07-11T02:27:50.189Z,5.67
2018-07-11T02:30:18.686Z,5.73
2018-07-11T02:32:47.318Z,9.77
2018-07-11T02:35:15.925Z,5.67
2018-07-11T02:37:44.473Z,11.73
2018-07-11T02:40:12.975Z,8.20
2018-07-11T02:42:41.570Z,6.30
2018-07-11T02:45:10.145Z,5.63
2018-07-11T02:47:44.014Z,10.90
2018-07-11T02:50:13.495Z,8.53
2018-07-11T02:52:42.413Z,9.30
2018-07-11T02:55:10.944Z,11.03
2018-07-11T02:57:39.498Z,8.13
2018-07-11T03:00:07.707Z,12.40
2018-07-11T03:02:36.279Z,12.73
2018-07-11T03:05:04.818Z,12.47
2018-07-11T03:07:33.361Z,13.07
2018-07-11T03:10:01.918Z,10.40
2018-07-11T03:12:30.569Z,12.60
2018-07-11T03:14:59.132Z,12.00
2018-07-11T03:17:27.665Z,17.17
2018-07-11T03:19:56.268Z,14.97
2018-07-11T03:22:24.797Z,13.77
2018-07-11T03:24:53.380Z,14.80
2018-07-11T03:27:21.920Z,12.70
2018-07-11T03:29:50.451Z,8.93
2018-07-11T03:32:19.013Z,10.33
2018-07-11T03:34:47.660Z,12.53
2018-07-11T03:37:16.199Z,11.17
2018-07-11T03:39:44.430Z,7.43
2018-07-11T03:42:12.973Z,14.13
2018-07-11T03:44:41.519Z,13.17
2018-07-11T03:47:10.084Z,10.03
2018-07-11T03:49:38.684Z,8.33
2018-07-11T03:52:07.349Z,10.40
2018-07-11T03:54:35.858Z,10.00
2018-07-11T03:57:04.413Z,15.37
2018-07-11T03:59:32.883Z,12.83
2018-07-11T04:02:01.095Z,12.03
2018-07-11T04:04:29.622Z,14.10
2018-07-11T04:06:58.174Z,13.23
2018-07-11T04:09:26.677Z,14.80
2018-07-11T04:11:55.211Z,13.37
2018-07-11T04:14:23.452Z,10.90
2018-07-11T04:16:52.005Z,9.77
2018-07-11T04:19:20.479Z,12.80
2018-07-11T04:21:49.024Z,12.23
2018-07-11T04:24:17.558Z,11.53
2018-07-11T04:26:46.107Z,14.83
2018-07-11T04:29:14.641Z,15.43
2018-07-11T04:31:43.243Z,15.40
2018-07-11T04:34:12.455Z,15.70
2018-07-11T04:36:41.010Z,16.27
2018-07-11T04:39:09.890Z,12.33
2018-07-11T04:41:38.095Z,19.30
2018-07-11T04:44:06.652Z,16.70
2018-07-11T04:46:35.341Z,13.67
2018-07-11T04:49:03.987Z,12.97
2018-07-11T04:51:32.483Z,17.90
2018-07-11T04:54:02.023Z,18.10
2018-07-11T04:56:31.570Z,15.87
2018-07-11T04:59:00.098Z,16.40
2018-07-11T05:01:28.619Z,14.83
2018-07-11T05:03:57.205Z,11.30
2018-07-11T05:06:25.418Z,15.00
2018-07-11T05:08:53.908Z,15.03
2018-07-11T05:11:22.421Z,15.57
2018-07-11T05:13:50.959Z,14.93
2018-07-11T05:16:19.504Z,21.60
2018-07-11T05:18:47.947Z,18.97
2018-07-11T05:21:16.444Z,23.30
2018-07-11T05:23:44.947Z,19.00
2018-07-11T05:26:13.427Z,20.93
2018-07-11T05:28:41.962Z,21.27
2018-07-11T05:31:10.453Z,21.07
2018-07-11T05:33:38.993Z,23.87
2018-07-11T05:36:07.537Z,21.83
2018-07-11T05:38:36.030Z,19.73
2018-07-11T05:41:04.539Z,24.90
2018-07-11T05:43:33.009Z,27.00
2018-07-11T05:46:01.547Z,23.23
2018-07-11T05:48:30.680Z,19.73
2018-07-11T05:50:59.162Z,21.67
2018-07-11T05:53:27.671Z,28.57
2018-07-11T05:55:56.191Z,20.40
2018-07-11T05:58:24.727Z,19.00
2018-07-11T06:00:53.303Z,20.07
2018-07-11T06:03:21.877Z,19.83
2018-07-11T06:05:50.197Z,18.00
2018-07-11T06:08:18.697Z,18.23
2018-07-11T06:10:47.211Z,19.10
2018-07-11T06:13:15.770Z,16.63
2018-07-11T06:15:44.297Z,19.77
2018-07-11T06:18:12.443Z,15.73
2018-07-11T06:20:40.973Z,16.03
2018-07-11T06:23:09.442Z,18.57
2018-07-11T06:25:37.621Z,17.73
2018-07-11T06:28:06.163Z,21.03
2018-07-11T06:30:34.612Z,20.53
2018-07-11T06:33:03.152Z,20.23
2018-07-11T06:35:31.615Z,18.27
2018-07-11T06:38:00.181Z,18.07
2018-07-11T06:40:28.683Z,21.87
2018-07-11T06:42:57.194Z,19.50
2018-07-11T06:45:25.651Z,17.13
2018-07-11T06:47:54.234Z,19.53
2018-07-11T06:50:22.717Z,22.27
2018-07-11T06:52:51.208Z,13.77
2018-07-11T06:55:19.717Z,20.67
2018-07-11T06:57:48.223Z,20.30
2018-07-11T07:00:16.750Z,16.70
2018-07-11T07:02:46.169Z,15.80
2018-07-11T07:05:14.673Z,22.90
2018-07-11T07:07:43.155Z,18.53
2018-07-11T07:10:11.656Z,17.00
2018-07-11T07:12:40.177Z,16.13
2018-07-11T07:15:08.634Z,18.50
2018-07-11T07:17:37.114Z,20.97
2018-07-11T07:20:05.785Z,25.07
2018-07-11T07:22:34.670Z,23.60
2018-07-11T07:25:03.144Z,15.27
2018-07-11T07:27:31.660Z,17.63
2018-07-11T07:30:00.186Z,16.13
2018-07-11T07:32:28.690Z,15.73
2018-07-11T07:34:56.923Z,15.87
2018-07-11T07:37:25.420Z,13.83
2018-07-11T07:39:54.021Z,10.73
2018-07-11T07:42:22.617Z,12.63
2018-07-11T07:44:51.305Z,11.10
2018-07-11T07:47:25.237Z,12.07
2018-07-11T07:49:53.473Z,9.73
2018-07-11T07:52:21.990Z,10.00
2018-07-11T07:54:50.581Z,11.20
2018-07-11T07:57:18.772Z,9.87
2018-07-11T07:59:47.434Z,12.37
2018-07-11T08:02:16.020Z,10.90
2018-07-11T08:04:45.702Z,10.83
2018-07-11T08:07:14.223Z,9.50
2018-07-11T08:09:42.793Z,9.00
2018-07-11T08:12:11.306Z,9.97
2018-07-11T08:14:39.529Z,11.43
2018-07-11T08:17:08.006Z,7.33
2018-07-11T08:19:36.539Z,6.43
2018-07-11T08:22:16.346Z,7.23
2018-07-11T08:24:56.063Z,9.47
2018-07-11T08:27:34.502Z,9.33
2018-07-11T08:30:44.798Z,7.33
2018-07-11T08:33:18.299Z,6.43
2018-07-11T08:37:54.326Z,8.30
2018-07-11T08:40:34.135Z,12.63
2018-07-11T08:43:10.279Z,7.33
2018-07-11T08:45:50.789Z,7.67
2018-07-11T08:48:39.022Z,7.30
2018-07-11T08:52:24.383Z,7.30
2018-07-11T08:55:04.151Z,6.90
2018-07-11T08:58:42.651Z,6.83
2018-07-11T09:01:16.514Z,7.37
2018-07-11T09:06:06.043Z,7.90
2018-07-11T09:08:51.889Z,6.27
2018-07-11T09:13:43.734Z,6.20
2018-07-11T09:16:23.853Z,5.90
2018-07-11T09:19:05.357Z,5.50
2018-07-11T09:22:46.656Z,6.00
2018-07-11T09:25:15.504Z,5.10
2018-07-11T09:27:44.024Z,5.40
2018-07-11T09:30:12.518Z,5.00
2018-07-11T09:32:41.062Z,5.07
2018-07-11T09:35:09.623Z,4.57
2018-07-11T09:37:38.176Z,5.70
2018-07-11T09:40:06.832Z,4.40
2018-07-11T09:42:35.348Z,4.93
2018-07-11T09:45:03.899Z,4.87
2018-07-11T09:47:32.404Z,4.77
2018-07-11T09:50:01.337Z,4.73
2018-07-11T09:52:29.904Z,4.17
2018-07-11T09:54:58.488Z,4.20
2018-07-11T09:57:27.889Z,3.47
2018-07-11T09:59:56.576Z,3.60
2018-07-11T10:02:25.172Z,4.27
2018-07-11T10:04:53.704Z,7.67
2018-07-11T10:07:21.901Z,8.80
2018-07-11T10:09:50.438Z,5.77
2018-07-11T10:12:18.955Z,11.07
2018-07-11T10:14:47.162Z,11.23
2018-07-11T10:17:15.621Z,6.30
2018-07-11T10:19:43.804Z,7.63
2018-07-11T10:22:12.014Z,8.13
2018-07-11T10:24:40.504Z,5.53
2018-07-11T10:27:09.011Z,5.70
2018-07-11T10:29:37.462Z,8.13
2018-07-11T10:32:06.008Z,8.50
2018-07-11T10:34:34.661Z,6.83
2018-07-11T10:37:03.188Z,8.10
2018-07-11T10:39:31.689Z,7.53
2018-07-11T10:42:00.234Z,7.10
2018-07-11T10:44:28.700Z,5.83
2018-07-11T10:47:02.410Z,5.87
2018-07-11T10:49:30.954Z,6.33
2018-07-11T10:51:59.186Z,4.27
2018-07-11T10:54:27.697Z,3.00
2018-07-11T10:56:56.227Z,3.23
2018-07-11T10:59:24.869Z,2.97
2018-07-11T11:01:53.417Z,4.37
2018-07-11T11:04:22.645Z,4.53
2018-07-11T11:06:51.292Z,3.00
2018-07-11T11:09:19.795Z,3.40
2018-07-11T11:11:48.315Z,6.20
2018-07-11T11:14:17.540Z,3.27
2018-07-11T11:16:46.670Z,2.30
2018-07-11T11:19:16.775Z,1.93
2018-07-11T11:21:45.089Z,2.37
2018-07-11T11:24:14.786Z,2.33
2018-07-11T11:26:43.440Z,2.27
2018-07-11T11:29:12.147Z,2.00
2018-07-11T11:31:41.872Z,2.00
2018-07-11T11:34:11.216Z,4.43
2018-07-11T11:36:39.811Z,2.30
2018-07-11T11:39:08.377Z,2.23
2018-07-11T11:41:37.029Z,2.10
2018-07-11T11:44:05.638Z,2.60
2018-07-11T11:46:34.190Z,3.13
2018-07-11T11:49:02.690Z,2.50
2018-07-11T11:51:30.939Z,2.60
2018-07-11T11:53:59.738Z,2.40
2018-07-11T11:56:28.309Z,2.67
2018-07-11T11:58:56.803Z,2.43
2018-07-11T12:01:25.291Z,3.17
2018-07-11T12:03:53.882Z,3.10
2018-07-11T12:06:22.414Z,4.70
2018-07-11T12:08:51.009Z,2.77
2018-07-11T12:11:19.618Z,3.97
2018-07-11T12:13:48.123Z,11.50
2018-07-11T12:16:16.672Z,5.10
2018-07-11T12:18:45.178Z,8.03
2018-07-11T12:21:13.966Z,6.67
2018-07-11T12:23:42.448Z,4.10
2018-07-11T12:26:11.465Z,3.47
2018-07-11T12:28:40.034Z,3.53
2018-07-11T12:31:08.563Z,3.60
2018-07-11T12:33:37.922Z,3.80
2018-07-11T12:36:07.018Z,4.27
2018-07-11T12:38:37.553Z,5.83
2018-07-11T12:41:06.249Z,4.63
2018-07-11T12:43:34.917Z,4.40
2018-07-11T12:46:03.441Z,4.23
2018-07-11T12:48:37.397Z,4.10
2018-07-11T12:51:05.904Z,3.87
2018-07-11T12:53:34.487Z,4.63
2018-07-11T12:56:02.753Z,4.47
2018-07-11T12:58:30.948Z,5.47
2018-07-11T13:00:59.506Z,5.07
2018-07-11T13:03:28.063Z,5.00
2018-07-11T13:05:56.657Z,5.67
2018-07-11T13:08:25.180Z,5.40
2018-07-11T13:10:53.406Z,7.13
2018-07-11T13:13:21.971Z,12.33
2018-07-11T13:15:50.465Z,9.07
2018-07-11T13:18:20.131Z,6.10
2018-07-11T13:20:48.696Z,9.40
2018-07-11T13:23:17.334Z,7.37
2018-07-11T13:25:45.833Z,5.90
2018-07-11T13:28:14.414Z,6.07
2018-07-11T13:30:43.033Z,6.10
2018-07-11T13:33:11.607Z,5.13
2018-07-11T13:35:40.288Z,5.17
2018-07-11T13:38:11.380Z,5.20
2018-07-11T13:40:39.920Z,5.33
2018-07-11T13:43:08.831Z,7.93
2018-07-11T13:45:37.346Z,8.53
2018-07-11T13:48:05.902Z,5.67
2018-07-11T13:50:35.132Z,5.90
2018-07-11T13:53:03.814Z,7.57
2018-07-11T13:55:32.931Z,6.30
2018-07-11T13:58:02.556Z,7.63
2018-07-11T14:00:32.171Z,7.37
2018-07-11T14:03:00.677Z,5.93
2018-07-11T14:05:29.176Z,7.50
2018-07-11T14:07:57.738Z,5.50
2018-07-11T14:10:25.926Z,7.00
2018-07-11T14:12:54.488Z,7.10
2018-07-11T14:15:22.964Z,6.77
2018-07-11T14:17:51.553Z,6.10
2018-07-11T14:20:20.116Z,12.80
2018-07-11T14:22:48.802Z,7.70
2018-07-11T14:25:18.258Z,6.80
2018-07-11T14:27:47.669Z,8.83
2018-07-11T14:30:16.120Z,7.73
2018-07-11T14:32:50.502Z,6.67
2018-07-11T14:35:19.435Z,7.00
2018-07-11T14:37:49.243Z,6.83
2018-07-11T14:40:17.876Z,5.90
2018-07-11T14:42:46.449Z,5.70
2018-07-11T14:45:15.965Z,5.70
2018-07-11T14:47:49.788Z,5.90
2018-07-11T14:50:18.591Z,7.63
2018-07-11T14:52:47.381Z,6.57
2018-07-11T14:55:16.292Z,7.17
2018-07-11T14:57:44.814Z,11.13
2018-07-11T15:00:13.308Z,9.00
2018-07-11T15:02:41.807Z,11.40
2018-07-11T15:05:10.320Z,6.60
2018-07-11T15:07:38.834Z,7.13
2018-07-11T15:10:07.398Z,7.27
2018-07-11T15:12:35.968Z,9.77
2018-07-11T15:15:04.519Z,8.03
2018-07-11T15:17:33.387Z,11.47
2018-07-11T15:20:01.989Z,8.50
2018-07-11T15:22:30.466Z,8.20
2018-07-11T15:24:59.033Z,6.40
2018-07-11T15:27:27.568Z,6.80
2018-07-11T15:29:56.742Z,5.97
2018-07-11T15:32:25.602Z,5.73
2018-07-11T15:34:53.799Z,9.37
2018-07-11T15:37:22.396Z,6.53
2018-07-11T15:39:51.934Z,6.37
2018-07-11T15:42:20.623Z,7.80
2018-07-11T15:44:50.382Z,12.13
2018-07-11T15:47:20.727Z,10.07
2018-07-11T15:49:50.410Z,7.97
2018-07-11T15:52:19.201Z,9.43
2018-07-11T15:54:47.714Z,5.40
2018-07-11T15:57:16.330Z,6.23
2018-07-11T15:59:52.834Z,7.30
2018-07-11T16:02:21.331Z,6.63
2018-07-11T16:04:50.416Z,8.50
2018-07-11T16:07:19.874Z,7.67
2018-07-11T16:09:54.978Z,6.43
2018-07-11T16:12:23.713Z,6.53
2018-07-11T16:14:52.230Z,6.77
2018-07-11T16:17:21.508Z,6.40
2018-07-11T16:19:50.099Z,6.93
2018-07-11T16:22:18.777Z,8.77
2018-07-11T16:24:47.371Z,7.97
2018-07-11T16:27:15.895Z,6.70
2018-07-11T16:29:44.611Z,8.53
2018-07-11T16:32:12.829Z,8.67
2018-07-11T16:34:41.525Z,10.30
2018-07-11T16:37:10.073Z,6.20
2018-07-11T16:39:38.637Z,8.23
2018-07-11T16:42:07.273Z,6.50
2018-07-11T16:44:36.320Z,7.50
2018-07-11T16:47:06.458Z,7.97
2018-07-11T16:49:35.589Z,6.50
2018-07-11T16:52:04.406Z,6.47
2018-07-11T16:54:33.701Z,9.40
2018-07-11T16:57:02.932Z,7.87
2018-07-11T17:00:09.954Z,8.10
2018-07-11T17:02:39.212Z,6.93
2018-07-11T17:05:09.138Z,8.43
2018-07-11T17:07:45.665Z,6.50
2018-07-11T17:10:15.061Z,8.97
2018-07-11T17:12:44.914Z,9.00
2018-07-11T17:15:13.523Z,6.67
2018-07-11T17:17:42.102Z,6.57
2018-07-11T17:20:11.692Z,6.00
2018-07-11T17:23:00.276Z,5.83
2018-07-11T17:25:29.803Z,6.43
2018-07-11T17:28:00.491Z,5.90
2018-07-11T17:30:39.698Z,6.87
2018-07-11T17:33:09.441Z,6.30
2018-07-11T17:35:48.875Z,6.00
2018-07-11T17:38:18.958Z,4.90
2018-07-11T17:40:47.835Z,7.17
2018-07-11T17:43:17.854Z,4.80
2018-07-11T17:45:46.957Z,4.43
2018-07-11T17:48:22.081Z,4.27
2018-07-11T17:50:50.802Z,3.53
2018-07-11T17:53:25.254Z,4.63
2018-07-11T17:56:05.612Z,3.83
2018-07-11T17:58:45.714Z,4.27
2018-07-11T18:01:14.433Z,4.20
2018-07-11T18:03:52.655Z,3.80
2018-07-11T18:06:34.992Z,4.30
2018-07-11T18:09:08.519Z,5.73
2018-07-11T18:11:58.218Z,3.57
2018-07-11T18:15:04.479Z,3.23
2018-07-11T18:18:41.120Z,4.50
2018-07-11T18:21:33.928Z,3.80
2018-07-11T18:25:15.808Z,3.77
2018-07-11T18:27:55.472Z,5.67
2018-07-11T18:31:33.023Z,3.83
2018-07-11T18:36:22.873Z,3.80
2018-07-11T18:39:11.929Z,8.93
2018-07-11T18:42:51.304Z,4.00
2018-07-11T18:45:26.563Z,4.47
2018-07-11T18:48:18.437Z,5.37
2018-07-11T18:50:57.480Z,5.73
2018-07-11T18:53:34.128Z,6.90
2018-07-11T18:57:11.187Z,6.20
2018-07-11T18:59:55.233Z,5.33
2018-07-11T19:02:35.791Z,6.87
2018-07-11T19:05:18.166Z,7.07
2018-07-11T19:07:55.071Z,5.37
2018-07-11T19:10:34.925Z,8.10
2018-07-11T19:13:13.149Z,5.67
2018-07-11T19:15:46.098Z,6.80
2018-07-11T19:18:19.788Z,6.30
2018-07-11T19:21:14.186Z,5.80
2018-07-11T19:24:11.371Z,8.80
2018-07-11T19:26:45.232Z,5.50
2018-07-11T19:30:24.206Z,4.73
2018-07-11T19:33:04.704Z,5.10
2018-07-11T19:35:44.531Z,5.27
2018-07-11T19:38:22.654Z,4.80
2018-07-11T19:41:04.204Z,5.83
2018-07-11T19:44:47.592Z,6.43
2018-07-11T19:47:24.475Z,7.37
2018-07-11T19:49:59.448Z,5.67
2018-07-11T19:54:42.381Z,5.70
2018-07-11T19:57:10.990Z,8.60
2018-07-11T19:59:39.579Z,8.57
2018-07-11T20:02:08.268Z,10.20
2018-07-11T20:04:37.652Z,6.43
2018-07-11T20:07:06.180Z,6.80
2018-07-11T20:09:34.377Z,7.17
2018-07-11T20:12:02.941Z,8.33
2018-07-11T20:14:31.643Z,9.87
2018-07-11T20:17:00.155Z,6.03
2018-07-11T20:19:28.661Z,6.73
2018-07-11T20:21:57.202Z,5.43
2018-07-11T20:24:25.704Z,6.47
2018-07-11T20:26:54.290Z,7.60
2018-07-11T20:29:23.190Z,7.07
2018-07-11T20:31:51.737Z,6.43
2018-07-11T20:34:20.336Z,13.30
2018-07-11T20:36:48.538Z,7.23
2018-07-11T20:39:17.151Z,8.07
2018-07-11T20:41:45.793Z,10.20
2018-07-11T20:44:14.023Z,10.83
2018-07-11T20:46:42.765Z,8.90
2018-07-11T20:49:16.506Z,8.43
2018-07-11T20:51:45.091Z,10.07
2018-07-11T20:54:13.602Z,8.93
2018-07-11T20:56:42.144Z,7.77
2018-07-11T20:59:21.814Z,10.70
2018-07-11T21:02:01.604Z,13.03
2018-07-11T21:04:44.346Z,7.87
2018-07-11T21:08:40.596Z,7.90
2018-07-11T21:13:21.141Z,7.37
2018-07-11T21:19:11.201Z,8.63
2018-07-11T21:21:40.888Z,8.60
2018-07-11T21:24:12.841Z,8.13
2018-07-11T21:26:41.365Z,7.93
2018-07-11T21:29:10.060Z,7.80
2018-07-11T21:31:38.601Z,7.83
2018-07-11T21:34:07.292Z,7.30
2018-07-11T21:36:35.831Z,7.77
2018-07-11T21:39:05.092Z,7.63
2018-07-11T21:41:33.803Z,7.03
2018-07-11T21:44:02.050Z,7.23
2018-07-11T21:46:30.797Z,7.70
2018-07-11T21:48:59.338Z,8.23
2018-07-11T21:51:27.884Z,7.80
2018-07-11T21:53:56.511Z,9.90
2018-07-11T21:56:25.698Z,8.37
2018-07-11T21:58:54.242Z,7.87
2018-07-11T22:01:22.750Z,8.63
2018-07-11T22:03:51.300Z,9.93
2018-07-11T22:06:19.492Z,8.70
2018-07-11T22:08:47.737Z,8.50
2018-07-11T22:11:16.284Z,9.00
2018-07-11T22:13:44.882Z,12.80
2018-07-11T22:16:13.552Z,8.67
2018-07-11T22:18:44.196Z,12.77
2018-07-11T22:21:12.478Z,9.80
2018-07-11T22:23:40.315Z,8.97
2018-07-11T22:26:07.914Z,9.63
2018-07-11T22:28:35.321Z,9.83
2018-07-11T22:31:02.684Z,8.40
2018-07-11T22:33:30.178Z,8.90
2018-07-11T22:35:57.560Z,10.47
2018-07-11T22:38:24.954Z,9.60
2018-07-11T22:40:52.353Z,8.97
2018-07-11T22:43:19.740Z,8.77
2018-07-11T22:45:47.111Z,10.43
2018-07-11T22:48:14.493Z,9.50
2018-07-11T22:50:41.868Z,8.27
2018-07-11T22:53:09.361Z,11.67
2018-07-11T22:55:36.989Z,9.90
2018-07-11T22:58:04.334Z,8.50
2018-07-11T23:00:31.755Z,9.07
2018-07-11T23:02:59.113Z,9.87
2018-07-11T23:05:26.490Z,8.70
2018-07-11T23:07:53.835Z,9.27
2018-07-11T23:10:21.214Z,8.50
2018-07-11T23:12:48.573Z,9.80
2018-07-11T23:15:15.955Z,10.83
2018-07-11T23:17:43.312Z,10.93
2018-07-11T23:20:10.844Z,10.47
2018-07-11T23:22:38.209Z,9.57
2018-07-11T23:25:05.574Z,10.17
2018-07-11T23:27:32.989Z,10.37
2018-07-11T23:30:00.354Z,11.17
2018-07-11T23:32:27.772Z,10.43
2018-07-11T23:34:55.132Z,10.27
2018-07-11T23:37:22.519Z,10.23
2018-07-11T23:39:49.919Z,12.10
2018-07-11T23:42:17.305Z,11.37
2018-07-11T23:44:44.665Z,11.77
2018-07-11T23:47:12.084Z,12.77
2018-07-11T23:49:39.692Z,14.30
2018-07-11T23:52:07.079Z,11.47
2018-07-11T23:54:34.455Z,21.43
2018-07-11T23:57:01.864Z,12.83
2018-07-11T23:59:29.240Z,13.57
